首页
METAR-TAF:

METAR-TAF

机场 :

Bad Vöslau

巴特弗斯勞, 奥地利

纬度: 47-57-52N, 经度: 016-15-34E, 海拔: 233米

当前天气观测

该预报发布于44分钟前的16:00 UTC
风速10节,风向
温度 35°C
湿度 32%
气压

METAR: LOAV 261600Z 10010KT 25KM FEW050CU 35/16

时间: 18:44 (16:44 UTC)

预报

该预报发布于5小时和19分钟前的11:25 UTC
预报有效从26日的 12点(UTC)到 26日的 21点(UTC)
风速5节,风向东南
能见度10公里或以上
少量云层高于35000英尺
短暂存在
从 26日的 12点(UTC)到 26日的 16点(UTC)
风速12节,风向

TAF: LOAV 261125Z 2612/2621 13005KT 9999 FEW350 TEMPO 2612/2616 18012KT

超过4000个机场的气象观测和天气预报(METAR&TAF报告)。

可查询的气象台以黄色和红色小点在地图上表示。

将鼠标移到小点上方,可查看气象台名称。

然后点击查看天气观测和预报。

如需切换地图:点击带黑十字的绿色按钮放大地图;点击带横线的绿色按钮缩小地图;或者点击绿色箭头查看邻近地区的地图。


METAR-TAF: